Time;durP1;ratioP1;P1;durP2;ratioP2;P2;SDS_P1;SDS_P2;PMS_P1;PMS_P2;Temp;Humidity;BMP_temperature;BMP_pressure;BME280_temperature;BME280_humidity;BME280_pressure;Samples;Min_cycle;Max_cycle;Signal;HPM_P1;HPM_P2
2023/04/25 00:02:42;;;;;;;1.60;0.70;;;;;;;;;;6381697;22;20014;-78
2023/04/25 00:05:29;;;;;;;0.88;0.73;;;;;;;;;;6381119;22;20010;-77
2023/04/25 00:08:14;;;;;;;1.98;0.63;;;;;;;;;;6357977;22;20018;-78
2023/04/25 00:11:00;;;;;;;2.15;0.88;;;;;;;;;;6380948;22;20022;-77
2023/04/25 00:13:46;;;;;;;0.82;0.50;;;;;;;;;;6381282;22;20018;-77
2023/04/25 00:16:33;;;;;;;3.30;0.90;;;;;;;;;;6381551;22;20019;-78
2023/04/25 00:19:30;;;;;;;1.40;0.80;;;;;;;;;;6357506;22;20331;-77
2023/04/25 00:22:18;;;;;;;2.25;0.98;;;;;;;;;;6381921;22;20436;-79
2023/04/25 00:25:07;;;;;;;5.60;1.00;;;;;;;;;;6336339;22;20011;-78
2023/04/25 00:27:53;;;;;;;1.08;0.60;;;;;;;;;;6381258;22;20018;-78
2023/04/25 00:30:43;;;;;;;2.08;1.05;;;;;;;;;;6358112;22;20014;-76
2023/04/25 00:33:32;;;;;;;1.83;0.98;;;;;;;;;;6357457;22;20431;-78
2023/04/25 00:36:18;;;;;;;1.65;1.20;;;;;;;;;;6358187;22;20015;-76
2023/04/25 00:39:04;;;;;;;3.40;1.58;;;;;;;;;;6381405;22;20014;-78
2023/04/25 00:41:53;;;;;;;4.30;2.17;;;;;;;;;;6381213;22;20022;-78
2023/04/25 00:44:39;;;;;;;3.25;1.48;;;;;;;;;;6381223;22;20014;-77
2023/04/25 00:47:25;;;;;;;3.13;1.40;;;;;;;;;;6357407;22;20014;-78
2023/04/25 00:50:14;;;;;;;2.38;1.20;;;;;;;;;;6357572;22;20018;-77
2023/04/25 00:53:03;;;;;;;4.15;1.50;;;;;;;;;;6381304;22;20014;-76
2023/04/25 00:55:52;;;;;;;32.13;6.47;;;;;;;;;;6381441;22;20015;-76
2023/04/25 00:58:40;;;;;;;3.83;1.50;;;;;;;;;;6381032;22;20344;-78
2023/04/25 01:01:24;;;;;;;258.08;15.23;;;;;;;;;;6357311;22;20444;-75
2023/04/25 01:04:10;;;;;;;4.20;1.83;;;;;;;;;;6381234;22;20018;-75
2023/04/25 01:06:56;;;;;;;3.72;1.85;;;;;;;;;;6358611;22;20014;-76
2023/04/25 01:09:42;;;;;;;2.65;1.75;;;;;;;;;;6382930;22;20018;-78
2023/04/25 01:12:27;;;;;;;2.58;1.73;;;;;;;;;;6359451;22;20014;-75
2023/04/25 01:15:12;;;;;;;3.05;1.30;;;;;;;;;;6382845;22;20019;-76
2023/04/25 01:18:00;;;;;;;3.15;1.98;;;;;;;;;;6382880;22;20428;-76
2023/04/25 01:20:50;;;;;;;3.85;1.52;;;;;;;;;;6337561;22;20440;-76
2023/04/25 01:23:37;;;;;;;3.17;1.65;;;;;;;;;;6382920;22;20014;-76
2023/04/25 01:26:22;;;;;;;2.53;1.30;;;;;;;;;;6382745;22;20018;-77
2023/04/25 01:29:08;;;;;;;1.90;1.35;;;;;;;;;;6359366;22;20436;-76
2023/04/25 01:31:54;;;;;;;4.70;1.92;;;;;;;;;;6358821;22;20443;-76
2023/04/25 01:34:40;;;;;;;2.78;1.80;;;;;;;;;;6337258;22;20367;-77
2023/04/25 01:37:25;;;;;;;4.63;1.77;;;;;;;;;;6359058;22;20018;-76
2023/04/25 01:40:12;;;;;;;5.47;2.75;;;;;;;;;;6359350;22;20027;-78
2023/04/25 01:42:57;;;;;;;4.72;2.63;;;;;;;;;;6359067;22;20022;-78
2023/04/25 01:45:43;;;;;;;4.43;1.80;;;;;;;;;;6359032;22;20010;-78
2023/04/25 01:48:30;;;;;;;5.10;1.95;;;;;;;;;;6359470;22;20328;-77
2023/04/25 01:51:15;;;;;;;4.82;2.00;;;;;;;;;;6382295;22;20344;-77
2023/04/25 01:54:01;;;;;;;3.22;1.73;;;;;;;;;;6359350;22;20435;-77
2023/04/25 01:56:51;;;;;;;4.85;2.03;;;;;;;;;;6358877;22;20010;-79
2023/04/25 01:59:39;;;;;;;4.28;2.13;;;;;;;;;;6359115;22;20018;-76
2023/04/25 02:02:35;;;;;;;2.83;1.77;;;;;;;;;;6382284;22;20014;-79
2023/04/25 02:05:22;;;;;;;2.30;1.58;;;;;;;;;;6359535;22;20022;-76
2023/04/25 02:08:09;;;;;;;4.90;3.05;;;;;;;;;;6359026;22;20022;-76
2023/04/25 02:10:54;;;;;;;6.70;3.50;;;;;;;;;;6358407;22;20018;-77
2023/04/25 02:13:41;;;;;;;3.60;1.98;;;;;;;;;;6358925;22;20014;-79
2023/04/25 02:16:39;;;;;;;;;;;;;;;;;;6382489;22;20014;-79
2023/04/25 02:19:26;;;;;;;6.55;3.33;;;;;;;;;;6358761;22;19906;-77
2023/04/25 02:22:11;;;;;;;7.70;3.80;;;;;;;;;;6358603;22;20026;-77
2023/04/25 02:24:56;;;;;;;6.93;3.60;;;;;;;;;;6382118;22;20018;-78
2023/04/25 02:27:42;;;;;;;7.18;3.33;;;;;;;;;;6358753;22;20447;-79
2023/04/25 02:30:28;;;;;;;7.90;3.90;;;;;;;;;;6358553;22;20014;-79
2023/04/25 02:33:16;;;;;;;6.45;3.50;;;;;;;;;;6373242;22;20015;-78
2023/04/25 02:36:02;;;;;;;3.97;2.47;;;;;;;;;;6382024;22;20018;-77
2023/04/25 02:38:47;;;;;;;6.25;3.70;;;;;;;;;;6358679;22;20018;-78
2023/04/25 02:41:33;;;;;;;13.70;8.93;;;;;;;;;;6382165;22;20022;-77
2023/04/25 02:44:18;;;;;;;11.30;6.63;;;;;;;;;;6358668;22;20340;-77
2023/04/25 02:47:05;;;;;;;5.28;2.63;;;;;;;;;;6381963;22;20015;-78
2023/04/25 02:49:50;;;;;;;6.88;3.10;;;;;;;;;;6382458;22;20018;-78
2023/04/25 02:52:36;;;;;;;10.40;3.97;;;;;;;;;;6381708;22;20340;-78
2023/04/25 02:55:29;;;;;;;12.00;4.63;;;;;;;;;;6358389;22;20014;-77
2023/04/25 02:58:16;;;;;;;7.38;3.50;;;;;;;;;;6358370;22;20014;-77
2023/04/25 03:01:06;;;;;;;6.70;3.00;;;;;;;;;;6358565;22;20427;-77
2023/04/25 03:03:51;;;;;;;4.68;2.55;;;;;;;;;;6381974;22;20022;-79
2023/04/25 03:06:36;;;;;;;4.03;2.63;;;;;;;;;;6358124;22;20018;-79
2023/04/25 03:09:22;;;;;;;9.82;4.32;;;;;;;;;;6358267;22;20022;-79
2023/04/25 03:12:08;;;;;;;6.20;3.40;;;;;;;;;;6358508;22;20015;-79
2023/04/25 03:14:54;;;;;;;6.78;3.00;;;;;;;;;;6358211;22;20440;-77
2023/04/25 03:17:39;;;;;;;3.65;2.45;;;;;;;;;;6358289;22;20018;-77
2023/04/25 03:20:25;;;;;;;3.92;2.30;;;;;;;;;;6357477;22;20439;-79
2023/04/25 03:23:10;;;;;;;3.00;2.30;;;;;;;;;;6358244;22;20015;-76
2023/04/25 03:25:59;;;;;;;3.63;1.80;;;;;;;;;;6358206;22;20014;-77
2023/04/25 03:28:44;;;;;;;5.75;1.80;;;;;;;;;;6357786;22;20018;-78
2023/04/25 03:31:31;;;;;;;2.22;1.60;;;;;;;;;;6357570;22;20018;-77
2023/04/25 03:34:17;;;;;;;8.57;1.95;;;;;;;;;;6357200;22;20014;-78
2023/04/25 03:37:02;;;;;;;5.65;2.05;;;;;;;;;;6357657;22;20018;-78
2023/04/25 03:39:50;;;;;;;7.72;3.47;;;;;;;;;;6336495;22;20340;-77
2023/04/25 03:42:35;;;;;;;5.93;3.17;;;;;;;;;;6355367;22;20030;-78
2023/04/25 03:45:21;;;;;;;5.15;2.92;;;;;;;;;;6357087;22;20018;-79
2023/04/25 03:48:06;;;;;;;2.47;1.50;;;;;;;;;;6355275;22;20507;-78
2023/04/25 03:50:53;;;;;;;3.65;2.00;;;;;;;;;;6381006;22;20018;-79
2023/04/25 03:53:39;;;;;;;3.97;2.25;;;;;;;;;;6357845;22;20018;-80
2023/04/25 03:56:33;;;;;;;4.70;2.67;;;;;;;;;;6381240;22;20335;-77
2023/04/25 03:59:25;;;;;;;4.32;3.00;;;;;;;;;;6358128;22;20018;-78
2023/04/25 04:02:10;;;;;;;3.42;2.33;;;;;;;;;;6381387;22;20022;-77
2023/04/25 04:04:56;;;;;;;4.75;2.65;;;;;;;;;;6358206;22;20014;-78
2023/04/25 04:07:42;;;;;;;4.20;2.67;;;;;;;;;;6357874;22;20022;-78
2023/04/25 04:10:29;;;;;;;5.75;2.90;;;;;;;;;;6357681;22;20018;-79
2023/04/25 04:13:15;;;;;;;8.40;4.70;;;;;;;;;;6357979;22;20018;-79
2023/04/25 04:16:00;;;;;;;9.10;4.85;;;;;;;;;;6357740;22;20440;-80
2023/04/25 04:18:46;;;;;;;7.75;4.80;;;;;;;;;;6381136;22;20018;-77
2023/04/25 04:21:33;;;;;;;11.02;5.80;;;;;;;;;;6357635;22;20033;-80
2023/04/25 04:24:20;;;;;;;6.53;4.57;;;;;;;;;;6357506;22;20014;-77
2023/04/25 04:27:14;;;;;;;5.82;3.83;;;;;;;;;;6357626;22;20066;-78
2023/04/25 04:30:19;;;;;;;6.07;4.10;;;;;;;;;;6380465;22;20343;-78
2023/04/25 04:33:15;;;;;;;5.93;3.60;;;;;;;;;;6357428;22;20022;-77
2023/04/25 04:36:03;;;;;;;6.65;3.80;;;;;;;;;;6357745;22;20014;-79
2023/04/25 04:38:49;;;;;;;7.00;4.47;;;;;;;;;;6357183;22;20019;-79
2023/04/25 04:41:50;;;;;;;13.43;7.10;;;;;;;;;;6358593;22;20014;-79
2023/04/25 04:44:54;;;;;;;16.02;7.45;;;;;;;;;;6383053;22;20428;-79
2023/04/25 04:48:06;;;;;;;13.43;7.80;;;;;;;;;;6382945;22;20336;-77
2023/04/25 04:51:13;;;;;;;10.23;5.72;;;;;;;;;;6359577;22;20014;-77
2023/04/25 04:54:13;;;;;;;10.23;5.78;;;;;;;;;;6383253;22;20355;-77
2023/04/25 04:57:13;;;;;;;18.58;7.93;;;;;;;;;;6359376;22;20018;-77
2023/04/25 05:00:12;;;;;;;16.20;7.75;;;;;;;;;;6359726;22;20022;-76
2023/04/25 05:03:17;;;;;;;11.77;7.40;;;;;;;;;;6382096;22;20018;-79
2023/04/25 05:06:32;;;;;;;14.60;9.18;;;;;;;;;;6382707;22;20022;-79
2023/04/25 05:09:46;;;;;;;18.48;10.50;;;;;;;;;;6359573;22;20019;-80
2023/04/25 05:12:58;;;;;;;13.80;8.55;;;;;;;;;;6329122;22;20018;-79
2023/04/25 05:16:03;;;;;;;16.77;9.45;;;;;;;;;;6359981;22;20332;-80
2023/04/25 05:19:15;;;;;;;12.50;7.03;;;;;;;;;;6365207;22;20018;-78
2023/04/25 05:22:11;;;;;;;11.43;7.15;;;;;;;;;;6359714;22;20018;-80
2023/04/25 05:25:09;;;;;;;14.50;7.18;;;;;;;;;;6358794;22;20014;-80
2023/04/25 05:28:12;;;;;;;19.38;14.07;;;;;;;;;;6358405;22;20371;-78
2023/04/25 05:31:29;;;;;;;164.80;13.95;;;;;;;;;;6323545;22;20018;-79
2023/04/25 05:34:28;;;;;;;10.60;6.47;;;;;;;;;;6358182;22;20444;-78
2023/04/25 05:37:17;;;;;;;12.75;9.65;;;;;;;;;;6358947;22;20018;-80
2023/04/25 05:40:13;;;;;;;12.63;8.23;;;;;;;;;;6358030;22;20018;-77
2023/04/25 05:43:35;;;;;;;11.90;7.28;;;;;;;;;;6326240;22;20023;-79
2023/04/25 05:46:40;;;;;;;14.73;9.00;;;;;;;;;;6359251;22;20014;-79
2023/04/25 05:49:54;;;;;;;12.30;7.07;;;;;;;;;;6277938;22;20388;-80
2023/04/25 05:53:05;;;;;;;11.77;8.55;;;;;;;;;;6382631;22;20011;-78
2023/04/25 05:55:56;;;;;;;17.00;7.82;;;;;;;;;;6358800;22;20018;-77
2023/04/25 05:58:49;;;;;;;11.13;7.80;;;;;;;;;;6360264;22;20367;-77
2023/04/25 06:01:34;;;;;;;10.35;6.55;;;;;;;;;;6358567;22;20014;-80
2023/04/25 06:04:25;;;;;;;10.52;6.32;;;;;;;;;;6359891;22;20014;-80
2023/04/25 06:07:12;;;;;;;10.65;7.15;;;;;;;;;;6359395;22;20447;-81
2023/04/25 06:09:59;;;;;;;8.98;5.47;;;;;;;;;;6336935;22;20019;-81
2023/04/25 06:12:51;;;;;;;11.25;6.55;;;;;;;;;;6382329;22;20022;-78
2023/04/25 06:15:42;;;;;;;7.05;5.30;;;;;;;;;;6359324;22;20014;-78
2023/04/25 06:18:28;;;;;;;6.95;5.00;;;;;;;;;;6358855;22;20018;-79
2023/04/25 06:21:19;;;;;;;7.70;4.63;;;;;;;;;;6382905;22;20340;-77
2023/04/25 06:24:04;;;;;;;10.88;5.82;;;;;;;;;;6358537;22;20018;-81
2023/04/25 06:26:56;;;;;;;10.68;6.63;;;;;;;;;;6359760;22;20018;-79
2023/04/25 06:29:41;;;;;;;6.10;4.32;;;;;;;;;;6358787;22;20014;-80
2023/04/25 06:32:29;;;;;;;6.40;4.30;;;;;;;;;;6358231;22;20026;-80
2023/04/25 06:35:17;;;;;;;14.10;7.53;;;;;;;;;;6358714;22;20010;-80
2023/04/25 06:38:03;;;;;;;15.13;8.18;;;;;;;;;;6358878;22;20018;-79
2023/04/25 06:40:55;;;;;;;11.00;5.47;;;;;;;;;;6359845;22;20452;-76
2023/04/25 06:43:40;;;;;;;11.55;6.70;;;;;;;;;;6358280;22;20014;-76
2023/04/25 06:46:39;;;;;;;12.50;6.15;;;;;;;;;;6382571;22;20018;-77
2023/04/25 06:49:28;;;;;;;6.88;3.97;;;;;;;;;;6359174;22;20018;-77
2023/04/25 06:52:19;;;;;;;14.90;6.93;;;;;;;;;;6359296;22;20447;-77
2023/04/25 06:55:08;;;;;;;6.50;4.60;;;;;;;;;;6359138;22;20014;-77
2023/04/25 06:58:10;;;;;;;6.85;3.90;;;;;;;;;;6358638;22;20343;-80
2023/04/25 07:01:26;;;;;;;5.93;3.85;;;;;;;;;;6339665;22;20018;-77
2023/04/25 07:04:17;;;;;;;2.63;1.88;;;;;;;;;;6359146;22;20340;-79
2023/04/25 07:07:13;;;;;;;4.63;2.85;;;;;;;;;;6358639;22;20352;-80
2023/04/25 07:10:06;;;;;;;7.22;3.15;;;;;;;;;;6358194;22;20014;-77
2023/04/25 07:12:52;;;;;;;3.20;2.38;;;;;;;;;;6336080;22;20014;-77
2023/04/25 07:15:43;;;;;;;2.20;1.42;;;;;;;;;;6359350;22;20014;-80
2023/04/25 07:18:35;;;;;;;3.58;1.55;;;;;;;;;;6359409;22;20014;-77
2023/04/25 07:21:21;;;;;;;3.45;2.17;;;;;;;;;;6381383;22;20011;-79
2023/04/25 07:24:09;;;;;;;111.22;6.07;;;;;;;;;;6357647;22;20015;-77
2023/04/25 07:26:58;;;;;;;2.50;1.17;;;;;;;;;;6357708;22;20022;-76
2023/04/25 07:29:58;;;;;;;1.05;1.02;;;;;;;;;;6357983;22;20018;-80
2023/04/25 07:32:45;;;;;;;3.17;1.88;;;;;;;;;;6357276;22;20018;-77
2023/04/25 07:35:35;;;;;;;2.95;2.00;;;;;;;;;;6359280;22;20014;-80
2023/04/25 07:38:22;;;;;;;7.47;3.90;;;;;;;;;;6358396;22;20018;-81
2023/04/25 07:41:07;;;;;;;2.88;1.73;;;;;;;;;;6357721;22;20339;-80
2023/04/25 07:43:57;;;;;;;22.70;3.13;;;;;;;;;;6358963;22;20348;-77
2023/04/25 07:46:43;;;;;;;28.55;2.55;;;;;;;;;;6357900;22;20022;-77
2023/04/25 07:49:29;;;;;;;4.28;2.35;;;;;;;;;;6357747;22;20015;-80
2023/04/25 07:52:21;;;;;;;1.27;1.17;;;;;;;;;;6359388;22;20019;-81
2023/04/25 07:55:16;;;;;;;22.52;2.97;;;;;;;;;;6359108;22;20018;-78
2023/04/25 07:58:27;;;;;;;3.22;1.40;;;;;;;;;;6369521;22;20369;-82
2023/04/25 08:01:18;;;;;;;1.98;1.67;;;;;;;;;;6357574;22;20014;-80
2023/04/25 08:04:14;;;;;;;1.88;1.45;;;;;;;;;;6357519;22;20022;-80
2023/04/25 08:07:21;;;;;;;1.30;1.20;;;;;;;;;;6357881;22;20015;-81
2023/04/25 08:10:16;;;;;;;1.70;1.30;;;;;;;;;;6358752;22;20014;-80
2023/04/25 08:13:03;;;;;;;1.33;1.08;;;;;;;;;;6357942;22;20015;-80
2023/04/25 08:15:54;;;;;;;1.05;0.98;;;;;;;;;;6358919;22;20022;-77
2023/04/25 08:18:40;;;;;;;1.38;1.10;;;;;;;;;;6383539;22;20018;-80
2023/04/25 08:21:29;;;;;;;4.40;3.15;;;;;;;;;;6359928;22;20018;-77
2023/04/25 08:24:18;;;;;;;4.07;2.65;;;;;;;;;;6359842;22;20428;-80
2023/04/25 08:27:09;;;;;;;2.58;1.40;;;;;;;;;;6383548;22;20018;-80
2023/04/25 08:29:55;;;;;;;2.60;2.03;;;;;;;;;;6359638;22;20018;-80
2023/04/25 08:32:41;;;;;;;2.55;1.75;;;;;;;;;;6359290;22;20019;-77
2023/04/25 08:35:49;;;;;;;14.18;7.25;;;;;;;;;;6370228;22;20340;-81
2023/04/25 08:38:39;;;;;;;5.78;3.10;;;;;;;;;;6360675;22;20029;-79
2023/04/25 08:41:28;;;;;;;5.68;3.40;;;;;;;;;;6359376;22;20014;-82
2023/04/25 08:44:16;;;;;;;4.40;3.35;;;;;;;;;;6359998;22;20018;-75
2023/04/25 08:47:05;;;;;;;7.22;2.83;;;;;;;;;;6360018;22;20018;-75
2023/04/25 08:49:56;;;;;;;10.65;4.78;;;;;;;;;;6383025;22;20436;-75
2023/04/25 08:52:45;;;;;;;7.72;3.85;;;;;;;;;;6359368;22;20018;-76
2023/04/25 08:55:38;;;;;;;7.43;3.65;;;;;;;;;;6360587;22;20345;-77
2023/04/25 08:58:30;;;;;;;1.52;1.10;;;;;;;;;;6360937;22;20018;-77
2023/04/25 09:01:16;;;;;;;2.28;1.70;;;;;;;;;;6382581;22;20018;-76
2023/04/25 09:04:12;;;;;;;1.52;1.20;;;;;;;;;;6360251;22;20015;-77
2023/04/25 09:06:59;;;;;;;2.05;1.50;;;;;;;;;;6359293;22;20014;-77
2023/04/25 09:09:45;;;;;;;2.05;1.75;;;;;;;;;;6359650;22;20339;-78
2023/04/25 09:12:35;;;;;;;4.18;2.72;;;;;;;;;;6360057;22;20014;-76
2023/04/25 09:15:25;;;;;;;3.95;2.33;;;;;;;;;;6359958;22;20014;-77
2023/04/25 09:18:35;;;;;;;2.25;1.55;;;;;;;;;;6382821;22;20014;-76
2023/04/25 09:21:27;;;;;;;1.85;1.45;;;;;;;;;;6360229;22;20015;-76
2023/04/25 09:24:13;;;;;;;3.00;2.15;;;;;;;;;;6359886;22;20022;-80
2023/04/25 09:27:13;;;;;;;7.15;4.30;;;;;;;;;;6382357;22;20018;-75
2023/04/25 09:30:01;;;;;;;5.45;3.25;;;;;;;;;;6358963;22;20471;-74
2023/04/25 09:33:03;;;;;;;8.98;3.70;;;;;;;;;;6359040;22;20010;-75
2023/04/25 09:35:55;;;;;;;5.47;3.58;;;;;;;;;;6382635;22;20014;-76
2023/04/25 09:39:15;;;;;;;6.88;3.30;;;;;;;;;;6382787;22;20057;-77
2023/04/25 09:42:09;;;;;;;7.85;4.00;;;;;;;;;;6360509;22;20356;-76
2023/04/25 09:44:55;;;;;;;8.40;3.95;;;;;;;;;;6358911;22;20019;-76
2023/04/25 09:47:43;;;;;;;10.63;6.18;;;;;;;;;;6358978;22;20014;-76
2023/04/25 09:50:34;;;;;;;5.18;3.72;;;;;;;;;;6360687;22;20014;-74
2023/04/25 09:53:28;;;;;;;7.43;3.08;;;;;;;;;;6338977;22;20040;-74
2023/04/25 09:56:51;;;;;;;10.60;4.03;;;;;;;;;;6360120;22;20014;-76
2023/04/25 09:59:39;;;;;;;4.88;2.60;;;;;;;;;;6360143;22;20014;-77
2023/04/25 10:02:26;;;;;;;3.72;2.53;;;;;;;;;;6383395;22;20018;-78
2023/04/25 10:05:17;;;;;;;5.68;1.95;;;;;;;;;;6359534;22;20331;-75
2023/04/25 10:08:06;;;;;;;9.68;3.70;;;;;;;;;;6382294;22;20018;-81
2023/04/25 10:11:00;;;;;;;2.85;1.95;;;;;;;;;;6359958;22;20022;-81
2023/04/25 10:13:48;;;;;;;4.63;2.53;;;;;;;;;;6382066;22;20026;-81
2023/04/25 10:16:39;;;;;;;12.18;2.97;;;;;;;;;;6382649;22;20018;-81
2023/04/25 10:19:28;;;;;;;7.00;3.83;;;;;;;;;;6382900;22;20018;-79
2023/04/25 10:22:34;;;;;;;5.25;3.30;;;;;;;;;;6383063;22;20022;-85
2023/04/25 10:25:24;;;;;;;6.40;4.00;;;;;;;;;;6359888;22;20462;-82
2023/04/25 10:28:15;;;;;;;2.42;1.95;;;;;;;;;;6382500;22;20018;-81
2023/04/25 10:31:07;;;;;;;3.78;2.53;;;;;;;;;;6358729;22;20018;-79
2023/04/25 10:34:05;;;;;;;2.92;1.60;;;;;;;;;;6381978;22;20014;-79
2023/04/25 10:36:52;;;;;;;1.80;1.00;;;;;;;;;;6382485;22;20327;-80
2023/04/25 10:39:42;;;;;;;5.55;3.75;;;;;;;;;;6381850;22;20019;-75
2023/04/25 10:42:29;;;;;;;8.23;4.10;;;;;;;;;;6381875;22;20018;-77
2023/04/25 10:45:15;;;;;;;9.77;4.70;;;;;;;;;;6381688;22;20015;-76
2023/04/25 10:48:27;;;;;;;6.40;4.00;;;;;;;;;;6382145;22;20019;-76
2023/04/25 10:51:33;;;;;;;15.73;8.43;;;;;;;;;;6381573;22;20015;-76
2023/04/25 10:54:25;;;;;;;14.47;7.40;;;;;;;;;;6381990;22;20018;-78
2023/04/25 10:57:40;;;;;;;8.73;5.25;;;;;;;;;;6382233;22;20010;-77
2023/04/25 11:00:32;;;;;;;4.70;3.08;;;;;;;;;;6382707;22;20022;-77
2023/04/25 11:03:21;;;;;;;4.85;3.58;;;;;;;;;;6381690;22;20014;-78
2023/04/25 11:06:22;;;;;;;8.52;4.40;;;;;;;;;;6381532;22;20018;-78
2023/04/25 11:09:13;;;;;;;;;;;;;;;;;;6372631;22;20018;-78
2023/04/25 11:12:00;;;;;;;1999.90;999.90;;;;;;;;;;6381875;22;20212;-79
2023/04/25 11:14:46;;;;;;;1999.90;999.90;;;;;;;;;;6381647;22;20014;-77
2023/04/25 11:17:31;;;;;;;54.10;50.60;;;;;;;;;;6381937;22;20019;-77
2023/04/25 11:20:17;;;;;;;57.28;53.30;;;;;;;;;;6381398;22;20014;-78
2023/04/25 11:23:02;;;;;;;41.40;38.47;;;;;;;;;;6381982;22;20018;-80
2023/04/25 11:25:49;;;;;;;345.98;323.05;;;;;;;;;;6381472;22;20081;-79
2023/04/25 11:28:35;;;;;;;552.42;512.33;;;;;;;;;;6381365;22;20018;-77
2023/04/25 11:31:21;;;;;;;607.95;563.28;;;;;;;;;;6373729;22;20014;-81
2023/04/25 11:34:07;;;;;;;456.85;423.77;;;;;;;;;;6381710;22;20324;-77
2023/04/25 11:36:55;;;;;;;553.33;513.75;;;;;;;;;;6370686;22;20485;-77
2023/04/25 11:39:46;;;;;;;656.38;608.58;;;;;;;;;;6381680;22;20018;-78
2023/04/25 11:42:33;;;;;;;145.35;128.60;;;;;;;;;;6381431;22;20022;-77
2023/04/25 11:45:19;;;;;;;179.77;164.32;;;;;;;;;;6381925;22;20014;-81
2023/04/25 11:48:05;;;;;;;290.65;271.25;;;;;;;;;;6381263;22;20022;-78
2023/04/25 11:50:56;;;;;;;190.45;178.40;;;;;;;;;;6380968;22;20019;-77
2023/04/25 11:53:45;;;;;;;191.80;176.98;;;;;;;;;;6355493;22;20325;-74
2023/04/25 11:56:31;;;;;;;655.75;396.10;;;;;;;;;;6380961;22;20019;-75
2023/04/25 11:59:16;;;;;;;659.83;399.80;;;;;;;;;;6381888;22;20109;-76
2023/04/25 12:02:01;;;;;;;1999.90;999.90;;;;;;;;;;6381336;22;20015;-76
2023/04/25 12:04:52;;;;;;;1999.90;999.90;;;;;;;;;;6381184;22;20014;-80
2023/04/25 12:07:39;;;;;;;1508.50;757.72;;;;;;;;;;6359655;22;20010;-79
2023/04/25 12:10:26;;;;;;;247.05;83.53;;;;;;;;;;6380958;22;20014;-76
2023/04/25 12:13:21;;;;;;;5.22;3.20;;;;;;;;;;6359746;22;20019;-79
2023/04/25 12:16:08;;;;;;;5.30;3.22;;;;;;;;;;6381869;22;20014;-79
2023/04/25 12:19:00;;;;;;;8.27;3.78;;;;;;;;;;6382104;22;20018;-79
2023/04/25 12:21:46;;;;;;;4.80;3.33;;;;;;;;;;6381481;22;20018;-79
2023/04/25 12:24:34;;;;;;;4.80;3.05;;;;;;;;;;6381246;22;20022;-78
2023/04/25 12:27:21;;;;;;;6.30;3.42;;;;;;;;;;6381172;22;20014;-77
2023/04/25 12:30:07;;;;;;;5.35;2.40;;;;;;;;;;6381207;22;20018;-77
2023/04/25 12:32:53;;;;;;;6.80;4.25;;;;;;;;;;6373611;22;20018;-78
2023/04/25 12:35:38;;;;;;;7.97;4.43;;;;;;;;;;6380908;22;20014;-76
2023/04/25 12:38:32;;;;;;;14.10;4.43;;;;;;;;;;6371097;22;20014;-77
2023/04/25 12:41:22;;;;;;;3.63;2.65;;;;;;;;;;6380987;22;20018;-79
2023/04/25 12:44:07;;;;;;;4.40;2.90;;;;;;;;;;6382568;22;20010;-79
2023/04/25 12:46:54;;;;;;;6.72;4.40;;;;;;;;;;6381389;22;20010;-79
2023/04/25 12:49:41;;;;;;;5.88;2.70;;;;;;;;;;6381105;22;20336;-76
2023/04/25 12:52:28;;;;;;;7.22;3.50;;;;;;;;;;6381520;22;20018;-76
2023/04/25 12:55:22;;;;;;;8.80;2.53;;;;;;;;;;6382109;22;20018;-77
2023/04/25 12:58:18;;;;;;;4.67;2.20;;;;;;;;;;6381968;22;20432;-77
2023/04/25 13:01:09;;;;;;;3.97;2.20;;;;;;;;;;6359265;22;20014;-77
2023/04/25 13:03:55;;;;;;;5.18;2.20;;;;;;;;;;6382858;22;20018;-77
2023/04/25 13:06:42;;;;;;;4.57;2.75;;;;;;;;;;6360042;22;20015;-76
2023/04/25 13:09:42;;;;;;;5.18;2.67;;;;;;;;;;6383423;22;20018;-79
2023/04/25 13:12:28;;;;;;;3.78;2.85;;;;;;;;;;6382959;22;20023;-79
2023/04/25 13:15:15;;;;;;;2.78;2.05;;;;;;;;;;6359400;22;20115;-79
2023/04/25 13:18:06;;;;;;;6.25;2.33;;;;;;;;;;6382591;22;20022;-79
2023/04/25 13:20:56;;;;;;;10.38;2.60;;;;;;;;;;6383624;22;20018;-79
2023/04/25 13:23:46;;;;;;;6.32;2.83;;;;;;;;;;6383788;22;20015;-79
2023/04/25 13:26:37;;;;;;;3.63;2.63;;;;;;;;;;6382672;22;20451;-78
2023/04/25 13:29:27;;;;;;;3.72;2.10;;;;;;;;;;6382597;22;20010;-78
2023/04/25 13:32:14;;;;;;;4.75;2.80;;;;;;;;;;6378056;22;20010;-77
2023/04/25 13:35:00;;;;;;;3.65;2.60;;;;;;;;;;6382733;22;20378;-78
2023/04/25 13:37:46;;;;;;;5.20;2.45;;;;;;;;;;6383174;22;20014;-79
2023/04/25 13:40:32;;;;;;;6.22;3.10;;;;;;;;;;6382554;22;20018;-76
2023/04/25 13:43:23;;;;;;;4.10;2.85;;;;;;;;;;6382431;22;20022;-77
2023/04/25 13:46:09;;;;;;;3.65;2.53;;;;;;;;;;6382344;22;20014;-75
2023/04/25 13:48:55;;;;;;;6.43;4.07;;;;;;;;;;6382445;22;20018;-77
2023/04/25 13:51:41;;;;;;;12.05;6.68;;;;;;;;;;6382745;22;20432;-77
2023/04/25 13:54:26;;;;;;;11.60;6.40;;;;;;;;;;6382387;22;20018;-78
2023/04/25 13:57:13;;;;;;;14.20;5.20;;;;;;;;;;6382715;22;20015;-79
2023/04/25 14:00:08;;;;;;;7.50;3.95;;;;;;;;;;6382635;22;20010;-78
2023/04/25 14:02:53;;;;;;;6.53;3.60;;;;;;;;;;6382932;22;20018;-78
2023/04/25 14:05:39;;;;;;;7.65;4.30;;;;;;;;;;6382755;22;20018;-79
2023/04/25 14:08:24;;;;;;;7.47;4.45;;;;;;;;;;6383197;22;20014;-76
2023/04/25 14:11:10;;;;;;;3.90;2.95;;;;;;;;;;6383621;22;20014;-80
2023/04/25 14:13:55;;;;;;;6.57;3.80;;;;;;;;;;6381857;22;20439;-81
2023/04/25 14:16:42;;;;;;;5.85;3.20;;;;;;;;;;6382593;22;20010;-81
2023/04/25 14:19:33;;;;;;;5.05;3.58;;;;;;;;;;6382612;22;20351;-81
2023/04/25 14:22:24;;;;;;;11.48;4.55;;;;;;;;;;6382389;22;20122;-78
2023/04/25 14:25:10;;;;;;;7.35;4.22;;;;;;;;;;6382480;22;20018;-79
2023/04/25 14:27:56;;;;;;;6.13;4.10;;;;;;;;;;6382242;22;20022;-79
2023/04/25 14:30:46;;;;;;;12.82;5.95;;;;;;;;;;6382450;22;20018;-76
2023/04/25 14:33:31;;;;;;;14.52;7.43;;;;;;;;;;6371713;22;20014;-75
2023/04/25 14:36:22;;;;;;;8.13;5.47;;;;;;;;;;6382108;22;20032;-78
2023/04/25 14:39:14;;;;;;;8.00;4.10;;;;;;;;;;6381935;22;20014;-75
2023/04/25 14:41:59;;;;;;;11.05;5.97;;;;;;;;;;6382310;22;20367;-74
2023/04/25 14:44:45;;;;;;;14.05;6.20;;;;;;;;;;6381790;22;20019;-77
2023/04/25 14:47:31;;;;;;;15.18;7.00;;;;;;;;;;6381812;22;20440;-74
2023/04/25 14:50:16;;;;;;;14.30;8.63;;;;;;;;;;6381614;22;20022;-75
2023/04/25 14:53:02;;;;;;;13.95;7.60;;;;;;;;;;6381687;22;20014;-78
2023/04/25 14:55:48;;;;;;;11.00;6.05;;;;;;;;;;6358433;22;20022;-78
2023/04/25 14:58:34;;;;;;;14.65;6.78;;;;;;;;;;6382023;22;20014;-78
2023/04/25 15:01:20;;;;;;;14.10;6.78;;;;;;;;;;6380230;22;20014;-78
2023/04/25 15:04:05;;;;;;;13.27;8.25;;;;;;;;;;6380561;22;20018;-78
2023/04/25 15:06:51;;;;;;;15.95;7.80;;;;;;;;;;6381442;22;20336;-75
2023/04/25 15:09:37;;;;;;;15.50;8.73;;;;;;;;;;6381718;22;20018;-77
2023/04/25 15:12:26;;;;;;;16.33;8.77;;;;;;;;;;6381175;22;20019;-75
2023/04/25 15:15:12;;;;;;;15.40;8.70;;;;;;;;;;6381551;22;20014;-76
2023/04/25 15:17:57;;;;;;;7.55;5.05;;;;;;;;;;6384741;22;20018;-78
2023/04/25 15:20:43;;;;;;;5.13;3.67;;;;;;;;;;6384190;22;20010;-77
2023/04/25 15:23:28;;;;;;;9.48;5.88;;;;;;;;;;6382697;22;20022;-77
2023/04/25 15:26:14;;;;;;;15.15;6.00;;;;;;;;;;6382600;22;20018;-77
2023/04/25 15:29:00;;;;;;;9.60;4.45;;;;;;;;;;6382467;22;20014;-76
2023/04/25 15:31:46;;;;;;;6.03;4.03;;;;;;;;;;6379110;22;20018;-75
2023/04/25 15:34:31;;;;;;;6.60;3.17;;;;;;;;;;6381952;22;20014;-75
2023/04/25 15:37:18;;;;;;;161.48;64.60;;;;;;;;;;6381576;22;20014;-76
2023/04/25 15:40:10;;;;;;;8.20;5.30;;;;;;;;;;6381280;22;20022;-78
2023/04/25 15:42:55;;;;;;;9.02;5.05;;;;;;;;;;6381498;22;20018;-76
2023/04/25 15:45:41;;;;;;;8.90;4.80;;;;;;;;;;6381147;22;20010;-78
2023/04/25 15:48:36;;;;;;;5.63;4.43;;;;;;;;;;6338448;22;20010;-76
2023/04/25 15:51:22;;;;;;;9.13;4.80;;;;;;;;;;6381530;22;20335;-78
2023/04/25 15:54:13;;;;;;;8.75;5.57;;;;;;;;;;6381118;22;20018;-76
2023/04/25 15:56:58;;;;;;;11.30;5.65;;;;;;;;;;6381941;22;20014;-76
2023/04/25 15:59:44;;;;;;;14.25;6.85;;;;;;;;;;6381117;22;20019;-79
2023/04/25 16:02:29;;;;;;;12.45;6.57;;;;;;;;;;6381657;22;20014;-78
2023/04/25 16:05:16;;;;;;;9.20;6.05;;;;;;;;;;6381202;22;20018;-78
2023/04/25 16:08:07;;;;;;;11.27;6.25;;;;;;;;;;6381064;22;20034;-78
2023/04/25 16:10:59;;;;;;;15.20;6.07;;;;;;;;;;6381248;22;20014;-76
2023/04/25 16:13:45;;;;;;;5.15;3.00;;;;;;;;;;6380991;22;20010;-78
2023/04/25 16:16:30;;;;;;;8.93;4.70;;;;;;;;;;6381109;22;20018;-79
2023/04/25 16:19:16;;;;;;;9.23;4.75;;;;;;;;;;6381616;22;20018;-78
2023/04/25 16:22:02;;;;;;;5.25;3.75;;;;;;;;;;6381017;22;20018;-78
2023/04/25 16:24:49;;;;;;;3.97;3.20;;;;;;;;;;6381086;22;20022;-78
2023/04/25 16:27:39;;;;;;;7.32;5.15;;;;;;;;;;6381220;22;20010;-78
2023/04/25 16:30:25;;;;;;;9.32;4.50;;;;;;;;;;6381545;22;20014;-76
2023/04/25 16:33:11;;;;;;;10.10;5.82;;;;;;;;;;6372432;22;20344;-78
2023/04/25 16:35:57;;;;;;;8.57;6.00;;;;;;;;;;6380899;22;20022;-76
2023/04/25 16:38:44;;;;;;;46.33;18.10;;;;;;;;;;6382975;22;20018;-78
2023/04/25 16:41:31;;;;;;;40.40;16.13;;;;;;;;;;6383037;22;20026;-78
2023/04/25 16:44:16;;;;;;;30.15;12.05;;;;;;;;;;6382891;22;20118;-78
2023/04/25 16:47:03;;;;;;;21.63;11.07;;;;;;;;;;6381895;22;20376;-78
2023/04/25 16:49:49;;;;;;;16.95;9.73;;;;;;;;;;6382958;22;20014;-76
2023/04/25 16:52:35;;;;;;;20.85;12.57;;;;;;;;;;6383185;22;20014;-80